Time;durP1;ratioP1;P1;durP2;ratioP2;P2;SDS_P1;SDS_P2;PMS_P1;PMS_P2;Temp;Humidity;BMP_temperature;BMP_pressure;BME280_temperature;BME280_humidity;BME280_pressure;Samples;Min_cycle;Max_cycle;Signal;HPM_P1;HPM_P2
2022/06/03 00:01:12;;;;;;;8.93;4.45;;;12.80;99.90;;;;;;5051191;28;20017;-61
2022/06/03 00:03:46;;;;;;;6.38;3.60;;;12.80;99.90;;;;;;5042762;28;20021;-63
2022/06/03 00:06:27;;;;;;;9.32;3.15;;;12.90;99.90;;;;;;5048203;28;20025;-62
2022/06/03 00:09:39;;;;;;;10.35;4.00;;;12.90;99.90;;;;;;5051026;28;20021;-63
2022/06/03 00:12:14;;;;;;;7.18;3.50;;;13.00;99.90;;;;;;5042461;28;20044;-61
2022/06/03 00:14:57;;;;;;;9.77;3.60;;;13.00;99.90;;;;;;5049316;28;20051;-65
2022/06/03 00:17:38;;;;;;;8.13;3.78;;;13.00;99.90;;;;;;5045179;28;20037;-61
2022/06/03 00:20:37;;;;;;;8.85;3.28;;;13.00;99.90;;;;;;5051152;28;20021;-66
2022/06/03 00:23:12;;;;;;;8.05;3.17;;;13.10;99.90;;;;;;5050752;28;20025;-66
2022/06/03 00:25:43;;;;;;;4.45;3.15;;;13.10;99.90;;;;;;5051073;28;20377;-61
2022/06/03 00:28:41;;;;;;;6.47;3.00;;;13.10;99.90;;;;;;5049427;28;20021;-66
2022/06/03 00:31:34;;;;;;;11.55;3.90;;;13.10;99.90;;;;;;5050743;28;20029;-62
2022/06/03 00:34:06;;;;;;;7.07;3.30;;;13.10;99.90;;;;;;5049592;28;20466;-61
2022/06/03 00:36:56;;;;;;;8.98;3.30;;;13.10;99.90;;;;;;5050536;28;20040;-61
2022/06/03 00:39:32;;;;;;;8.48;3.72;;;13.10;99.90;;;;;;5053620;28;20057;-61
2022/06/03 00:42:15;;;;;;;9.90;3.90;;;13.10;99.90;;;;;;5054291;28;20040;-61
2022/06/03 00:44:59;;;;;;;6.53;3.05;;;13.00;99.90;;;;;;5052601;28;20024;-66
2022/06/03 00:47:34;;;;;;;8.40;3.55;;;13.10;99.90;;;;;;5044631;28;20021;-60
2022/06/03 00:50:15;;;;;;;7.22;3.03;;;13.10;99.90;;;;;;5055049;28;20040;-65
2022/06/03 00:52:54;;;;;;;10.10;3.00;;;13.10;99.90;;;;;;5054372;28;20025;-61
2022/06/03 00:55:43;;;;;;;8.48;3.13;;;13.00;99.90;;;;;;5054062;28;20017;-62
2022/06/03 00:58:18;;;;;;;6.85;3.63;;;13.00;99.90;;;;;;5047910;28;20040;-62
2022/06/03 01:01:08;;;;;;;14.88;5.10;;;13.00;99.90;;;;;;5053619;28;20025;-63
2022/06/03 01:03:55;;;;;;;8.32;3.55;;;13.00;99.90;;;;;;5053678;28;20088;-62
2022/06/03 01:07:18;;;;;;;8.00;2.90;;;13.00;99.90;;;;;;5050215;28;20041;-61
2022/06/03 01:09:44;;;;;;;;;;;13.00;99.90;;;;;;5011560;28;20185;-61
2022/06/03 01:12:19;;;;;;;6.30;3.20;;;12.90;99.90;;;;;;5031769;28;20039;-62
2022/06/03 01:15:13;;;;;;;6.40;2.90;;;12.90;99.90;;;;;;5032351;28;20065;-60
2022/06/03 01:17:58;;;;;;;5.95;2.85;;;12.90;99.90;;;;;;5049184;28;20124;-61
2022/06/03 01:20:44;;;;;;;8.57;3.58;;;12.90;99.90;;;;;;5050928;28;20017;-61
2022/06/03 01:23:29;;;;;;;7.03;2.72;;;12.90;99.90;;;;;;5051544;28;20041;-66
2022/06/03 01:26:16;;;;;;;6.80;2.70;;;12.90;99.90;;;;;;5051246;28;20025;-65
2022/06/03 01:28:58;;;;;;;6.47;3.13;;;12.90;99.90;;;;;;5043691;28;20476;-62
2022/06/03 01:31:24;;;;;;;7.57;3.20;;;12.90;99.90;;;;;;5050755;28;20025;-66
2022/06/03 01:34:25;;;;;;;7.47;3.40;;;12.80;99.90;;;;;;5054185;28;20024;-63
2022/06/03 01:37:24;;;;;;;7.10;2.92;;;12.80;99.90;;;;;;5053963;28;20028;-65
2022/06/03 01:40:08;;;;;;;5.60;3.08;;;12.80;99.90;;;;;;5047526;28;20024;-61
2022/06/03 01:42:36;;;;;;;5.80;3.05;;;12.80;99.90;;;;;;5032398;28;20060;-61
2022/06/03 01:45:26;;;;;;;8.18;3.47;;;12.80;99.90;;;;;;5033767;28;20029;-63
2022/06/03 01:48:30;;;;;;;6.60;2.90;;;12.80;99.90;;;;;;5033682;28;20033;-65
2022/06/03 01:51:11;;;;;;;9.50;3.72;;;12.80;99.90;;;;;;5020795;28;20041;-64
2022/06/03 01:53:42;;;;;;;6.70;3.25;;;12.70;99.90;;;;;;5031825;28;20025;-64
2022/06/03 01:56:33;;;;;;;6.95;3.15;;;12.80;99.90;;;;;;5033622;28;20033;-61
2022/06/03 01:59:10;;;;;;;6.70;3.28;;;12.80;99.90;;;;;;5032140;28;20021;-61
2022/06/03 02:02:05;;;;;;;10.50;3.20;;;12.80;99.90;;;;;;5033567;28;20463;-61
2022/06/03 02:04:42;;;;;;;6.22;2.97;;;12.80;99.90;;;;;;5033277;28;20021;-61
2022/06/03 02:07:40;;;;;;;9.23;3.22;;;12.80;99.90;;;;;;5033256;28;20450;-62
2022/06/03 02:10:38;;;;;;;9.23;3.08;;;12.80;99.90;;;;;;5031903;28;20083;-62
2022/06/03 02:13:09;;;;;;;11.35;4.07;;;12.80;99.90;;;;;;5028619;28;20116;-62
2022/06/03 02:15:50;;;;;;;7.63;3.23;;;12.80;99.90;;;;;;5032596;28;20053;-65
2022/06/03 02:18:31;;;;;;;7.68;3.47;;;12.90;99.90;;;;;;5033053;28;20018;-61
2022/06/03 02:21:21;;;;;;;8.57;3.72;;;12.90;99.90;;;;;;5050443;28;20032;-62
2022/06/03 02:24:01;;;;;;;6.70;3.50;;;12.90;99.90;;;;;;5052452;28;20017;-62
2022/06/03 02:27:09;;;;;;;12.68;3.15;;;12.90;99.90;;;;;;5051110;28;20028;-61
2022/06/03 02:32:39;;;;;;;6.10;3.30;;;12.90;99.90;;;;;;5040022;28;20487;-62
2022/06/03 02:35:20;;;;;;;9.77;3.10;;;12.90;99.90;;;;;;5062808;28;20100;-61
2022/06/03 02:38:08;;;;;;;7.25;3.20;;;12.90;99.90;;;;;;5056785;28;20033;-65
2022/06/03 02:40:37;;;;;;;10.10;3.45;;;13.00;99.90;;;;;;5043485;28;20035;-61
2022/06/03 02:43:36;;;;;;;5.70;2.80;;;13.00;99.90;;;;;;5062746;28;20029;-65
2022/06/03 02:46:29;;;;;;;7.60;3.60;;;13.00;99.90;;;;;;5068853;28;20024;-61
2022/06/03 02:49:16;;;;;;;9.07;3.13;;;13.00;99.90;;;;;;5060604;28;20024;-61
2022/06/03 02:52:19;;;;;;;9.25;3.60;;;13.00;99.90;;;;;;5057966;28;20724;-61
2022/06/03 02:55:13;;;;;;;7.07;3.40;;;13.00;99.90;;;;;;5046585;28;20013;-62
2022/06/03 02:57:50;;;;;;;8.02;3.40;;;13.00;99.90;;;;;;5058141;28;20025;-62
2022/06/03 03:00:20;;;;;;;10.00;3.78;;;13.00;99.90;;;;;;5068470;28;20021;-62
2022/06/03 03:03:06;;;;;;;8.23;4.00;;;13.00;99.90;;;;;;5058895;28;20516;-62
2022/06/03 03:06:16;;;;;;;10.38;3.25;;;13.00;99.90;;;;;;5058967;28;20021;-62
2022/06/03 03:09:17;;;;;;;11.25;5.60;;;13.00;99.90;;;;;;5045085;28;20016;-60
2022/06/03 03:12:10;;;;;;;7.30;3.42;;;12.90;99.90;;;;;;5056982;28;20419;-62
2022/06/03 03:15:16;;;;;;;9.48;3.85;;;12.90;99.90;;;;;;5051070;28;20054;-64
2022/06/03 03:18:00;;;;;;;7.75;3.50;;;12.90;99.90;;;;;;5057146;28;20025;-63
2022/06/03 03:20:49;;;;;;;6.50;3.58;;;12.90;99.90;;;;;;5040418;28;20020;-66
2022/06/03 03:23:44;;;;;;;9.80;3.90;;;12.90;99.90;;;;;;5060678;28;20112;-60
2022/06/03 03:26:21;;;;;;;10.43;3.95;;;12.90;99.90;;;;;;5067948;28;20048;-61
2022/06/03 03:29:05;;;;;;;10.45;3.92;;;12.90;99.90;;;;;;5059430;28;20017;-62
2022/06/03 03:32:01;;;;;;;9.50;3.97;;;12.90;99.90;;;;;;5058427;28;20021;-62
2022/06/03 03:34:50;;;;;;;6.60;3.25;;;12.90;99.90;;;;;;5040478;28;20357;-61
2022/06/03 03:37:29;;;;;;;9.30;3.72;;;12.90;99.90;;;;;;5060888;28;20449;-62
2022/06/03 03:40:13;;;;;;;11.15;4.05;;;12.90;99.90;;;;;;5068195;28;20021;-66
2022/06/03 03:43:01;;;;;;;9.25;3.70;;;12.90;99.90;;;;;;5058057;28;20047;-62
2022/06/03 03:45:54;;;;;;;8.98;3.58;;;12.90;99.90;;;;;;5059195;28;20021;-61
2022/06/03 03:48:55;;;;;;;7.80;3.80;;;12.90;99.90;;;;;;5068724;28;20024;-61
2022/06/03 03:51:39;;;;;;;10.32;4.63;;;12.90;99.90;;;;;;5029717;28;20029;-62
2022/06/03 03:54:16;;;;;;;7.63;3.95;;;13.00;99.90;;;;;;5066250;28;20036;-62
2022/06/03 03:57:10;;;;;;;6.75;3.70;;;13.00;99.90;;;;;;5056676;28;20518;-62
2022/06/03 03:59:54;;;;;;;7.35;3.17;;;13.00;99.90;;;;;;5057589;28;20021;-62
2022/06/03 04:02:38;;;;;;;7.90;3.30;;;13.00;99.90;;;;;;5068179;28;20094;-62
2022/06/03 04:05:23;;;;;;;11.52;4.53;;;13.00;99.90;;;;;;5059568;28;20092;-62
2022/06/03 04:07:54;;;;;;;11.30;4.30;;;13.10;99.90;;;;;;5056020;28;20108;-63
2022/06/03 04:10:40;;;;;;;12.40;4.57;;;13.10;99.90;;;;;;5067928;28;20096;-64
2022/06/03 04:13:43;;;;;;;8.45;4.18;;;13.10;99.90;;;;;;5059610;28;20357;-62
2022/06/03 04:16:27;;;;;;;;;;;13.10;99.90;;;;;;5067632;28;20068;-61
2022/06/03 04:18:58;;;;;;;8.77;3.40;;;13.00;99.90;;;;;;5061354;28;19900;-63
2022/06/03 04:21:51;;;;;;;9.50;4.07;;;13.00;99.90;;;;;;5063359;28;20033;-62
2022/06/03 04:24:35;;;;;;;;;;;12.90;99.90;;;;;;5072233;28;20249;-62
2022/06/03 04:27:25;;;;;;;8.45;4.70;;;12.90;99.90;;;;;;5064445;28;19926;-62
2022/06/03 04:30:13;;;;;;;9.85;4.43;;;12.90;99.90;;;;;;5058841;28;20048;-62
2022/06/03 04:33:13;;;;;;;9.13;4.97;;;12.80;99.90;;;;;;5045531;28;20048;-61
2022/06/03 04:35:42;;;;;;;11.32;3.90;;;12.80;99.90;;;;;;5060461;28;20029;-62
2022/06/03 04:38:58;;;;;;;9.82;4.22;;;12.80;99.90;;;;;;5071271;28;20430;-60
2022/06/03 04:41:43;;;;;;;6.45;3.65;;;12.90;99.90;;;;;;5067014;28;20119;-62
2022/06/03 04:44:27;;;;;;;12.35;4.40;;;12.90;99.90;;;;;;5058524;28;20469;-61
2022/06/03 04:47:28;;;;;;;11.23;4.82;;;12.90;99.90;;;;;;5067441;28;20401;-62
2022/06/03 04:50:33;;;;;;;8.77;4.25;;;13.00;99.90;;;;;;5071499;28;20167;-62
2022/06/03 04:53:10;;;;;;;6.85;3.90;;;13.10;99.90;;;;;;5058733;28;20060;-65
2022/06/03 04:56:05;;;;;;;9.48;4.75;;;13.20;99.90;;;;;;5068433;28;20051;-65
2022/06/03 04:58:48;;;;;;;10.35;4.00;;;13.40;99.90;;;;;;5051781;28;20114;-64
2022/06/03 05:01:22;;;;;;;7.10;3.67;;;13.50;99.90;;;;;;5061827;28;20528;-60
2022/06/03 05:04:17;;;;;;;9.55;4.30;;;13.60;99.90;;;;;;5070487;28;20021;-62
2022/06/03 05:07:16;;;;;;;9.23;3.90;;;13.70;99.90;;;;;;5047425;28;20012;-61
2022/06/03 05:10:12;;;;;;;8.07;4.10;;;13.80;99.90;;;;;;5059835;28;20025;-63
2022/06/03 05:13:08;;;;;;;8.05;3.75;;;14.00;99.90;;;;;;5046919;28;20013;-63
2022/06/03 05:15:51;;;;;;;11.70;4.22;;;14.10;99.90;;;;;;5070159;28;20024;-62
2022/06/03 05:18:44;;;;;;;6.68;3.90;;;14.30;99.90;;;;;;5070270;28;20091;-61
2022/06/03 05:21:48;;;;;;;10.13;3.97;;;14.40;99.90;;;;;;5065266;28;20067;-61
2022/06/03 05:24:22;;;;;;;12.90;4.72;;;14.60;99.90;;;;;;5057134;28;20045;-60
2022/06/03 05:27:15;;;;;;;11.52;4.40;;;14.80;99.90;;;;;;5065274;28;21032;-61
2022/06/03 05:30:09;;;;;;;17.40;7.38;;;15.10;99.90;;;;;;5068407;28;20460;-62
2022/06/03 05:32:57;;;;;;;14.50;6.13;;;15.50;99.90;;;;;;5045045;28;20052;-62
2022/06/03 05:35:44;;;;;;;7.43;3.85;;;16.20;99.90;;;;;;5061201;28;20021;-60
2022/06/03 05:38:43;;;;;;;11.75;4.35;;;16.60;99.90;;;;;;5069395;28;20036;-63
2022/06/03 05:44:40;;;;;;;6.63;3.83;;;17.80;99.90;;;;;;5057110;28;20035;-64
2022/06/03 05:47:33;;;;;;;7.53;3.50;;;18.50;99.90;;;;;;5064042;28;20029;-62
2022/06/03 05:50:03;;;;;;;6.22;3.50;;;18.90;99.90;;;;;;5066617;28;20039;-62
2022/06/03 05:53:07;;;;;;;6.85;3.28;;;19.40;99.90;;;;;;5058233;28;20360;-62
2022/06/03 05:56:02;;;;;;;10.15;3.63;;;20.10;99.90;;;;;;5059686;28;20021;-62
2022/06/03 05:59:09;;;;;;;8.20;3.30;;;20.80;99.40;;;;;;5042535;28;20021;-62
2022/06/03 06:02:05;;;;;;;8.43;3.55;;;21.50;98.10;;;;;;5059401;28;20017;-62
2022/06/03 06:04:51;;;;;;;8.02;3.22;;;21.90;97.00;;;;;;5043427;28;20037;-62
2022/06/03 06:07:35;;;;;;;10.55;3.35;;;22.30;95.90;;;;;;5061541;28;20021;-61
2022/06/03 06:10:31;;;;;;;10.50;3.78;;;22.50;95.30;;;;;;5070856;28;20028;-61
2022/06/03 06:13:14;;;;;;;7.97;3.70;;;22.70;94.80;;;;;;5055020;28;20021;-62
2022/06/03 06:16:03;;;;;;;6.90;3.25;;;23.20;94.40;;;;;;5052820;28;20039;-61
2022/06/03 06:18:48;;;;;;;8.45;3.58;;;23.60;92.80;;;;;;5045719;28;20060;-62
2022/06/03 06:21:32;;;;;;;5.95;3.08;;;23.90;92.40;;;;;;5053169;28;20024;-61
2022/06/03 06:24:41;;;;;;;9.07;3.05;;;24.10;91.90;;;;;;5053064;28;20032;-61
2022/06/03 06:27:28;;;;;;;5.72;3.15;;;24.60;91.50;;;;;;5046845;28;20037;-62
2022/06/03 06:30:18;;;;;;;5.57;2.67;;;25.00;90.80;;;;;;5052653;28;20020;-62
2022/06/03 06:33:12;;;;;;;8.13;3.03;;;25.30;90.00;;;;;;5052640;28;20090;-62
2022/06/03 06:35:44;;;;;;;10.55;3.35;;;25.50;89.20;;;;;;5051325;28;20152;-61
2022/06/03 06:38:33;;;;;;;;;;;25.60;88.70;;;;;;5045918;28;20029;-63
2022/06/03 06:41:08;;;;;;;4.95;2.70;;;25.60;87.60;;;;;;5044757;28;19927;-62
2022/06/03 06:43:50;;;;;;;6.53;3.30;;;25.70;86.40;;;;;;5051424;28;20033;-63
2022/06/03 06:46:36;;;;;;;6.57;3.08;;;25.80;86.50;;;;;;5052401;28;20024;-62
2022/06/03 06:49:04;;;;;;;6.25;3.20;;;25.90;85.80;;;;;;5051998;28;20082;-63
2022/06/03 06:52:00;;;;;;;5.30;2.53;;;26.00;84.10;;;;;;5052116;28;20021;-63
2022/06/03 06:54:35;;;;;;;6.00;2.70;;;26.30;84.20;;;;;;5053099;28;20032;-61
2022/06/03 06:57:11;;;;;;;5.35;2.90;;;26.50;82.30;;;;;;5050912;28;20037;-64
2022/06/03 07:00:04;;;;;;;5.72;3.05;;;26.70;82.00;;;;;;5052215;28;20057;-62
2022/06/03 07:02:48;;;;;;;5.07;2.75;;;26.90;80.50;;;;;;5051955;28;20029;-65
2022/06/03 07:05:20;;;;;;;5.68;3.63;;;26.90;79.80;;;;;;5048374;28;20465;-64
2022/06/03 07:07:45;;;;;;;6.22;2.53;;;27.10;78.80;;;;;;5049516;28;20574;-64
2022/06/03 07:10:24;;;;;;;5.85;2.67;;;27.10;78.10;;;;;;5052151;28;20033;-62
2022/06/03 07:13:05;;;;;;;3.65;2.47;;;27.10;77.80;;;;;;5051476;28;20415;-61
2022/06/03 07:15:33;;;;;;;4.97;2.55;;;27.20;76.80;;;;;;5050850;28;20025;-62
2022/06/03 07:20:56;;;;;;;8.55;2.60;;;27.10;75.90;;;;;;5048731;28;20032;-61
2022/06/03 07:23:50;;;;;;;6.45;2.90;;;27.10;75.80;;;;;;5051933;28;20060;-61
2022/06/03 07:26:38;;;;;;;7.43;2.63;;;26.90;75.30;;;;;;5050286;28;20040;-61
2022/06/03 07:29:12;;;;;;;8.38;2.88;;;26.70;76.20;;;;;;5051739;28;20029;-63
2022/06/03 07:31:54;;;;;;;4.57;2.70;;;26.80;76.70;;;;;;5052064;28;20477;-63
2022/06/03 07:34:49;;;;;;;5.47;2.83;;;26.70;76.90;;;;;;5052232;28;20392;-61
2022/06/03 07:37:27;;;;;;;6.45;2.75;;;26.50;76.60;;;;;;5052503;28;20072;-63
2022/06/03 07:40:11;;;;;;;5.72;2.53;;;26.30;77.10;;;;;;5052574;28;20049;-62
2022/06/03 07:42:52;;;;;;;3.97;2.63;;;26.40;77.80;;;;;;5052775;28;20473;-66
2022/06/03 07:45:29;;;;;;;5.93;2.70;;;26.60;77.20;;;;;;5052509;28;20025;-65
2022/06/03 07:47:58;;;;;;;5.25;2.60;;;26.50;77.60;;;;;;5051950;28;20021;-62
2022/06/03 07:50:28;;;;;;;5.53;2.65;;;26.20;77.40;;;;;;5056429;28;20449;-61
2022/06/03 07:52:59;;;;;;;6.35;2.50;;;26.10;78.10;;;;;;5055733;28;20028;-65
2022/06/03 07:55:28;;;;;;;8.68;3.05;;;25.70;78.00;;;;;;5055278;28;20025;-65
2022/06/03 07:58:04;;;;;;;4.13;2.53;;;25.40;78.40;;;;;;5054891;28;20032;-63
2022/06/03 08:00:34;;;;;;;6.57;2.60;;;25.10;79.00;;;;;;5053971;28;20024;-62
2022/06/03 08:03:22;;;;;;;5.90;2.65;;;24.90;79.50;;;;;;5054975;28;20483;-62
2022/06/03 08:05:57;;;;;;;5.70;3.10;;;24.70;79.40;;;;;;5055374;28;20511;-62
2022/06/03 08:11:18;;;;;;;6.68;3.35;;;24.70;81.30;;;;;;5055339;28;20134;-61
2022/06/03 08:13:53;;;;;;;3.90;2.50;;;24.90;81.60;;;;;;5055415;28;20055;-63
2022/06/03 08:16:36;;;;;;;3.58;2.90;;;25.20;81.20;;;;;;5055773;28;20111;-65
2022/06/03 08:19:10;;;;;;;9.77;3.10;;;25.70;78.50;;;;;;5053895;28;20059;-62
2022/06/03 08:21:42;;;;;;;5.35;3.22;;;26.10;78.20;;;;;;5055675;28;20102;-65
2022/06/03 08:24:12;;;;;;;6.30;3.13;;;26.60;77.50;;;;;;5055679;28;20024;-66
2022/06/03 08:26:42;;;;;;;4.28;2.55;;;27.30;76.30;;;;;;5055273;28;20453;-65
2022/06/03 08:29:21;;;;;;;7.25;2.90;;;28.00;75.50;;;;;;5053905;28;20357;-61
2022/06/03 08:31:47;;;;;;;10.05;2.90;;;28.80;74.50;;;;;;5054143;28;20057;-61
2022/06/03 08:34:38;;;;;;;4.10;2.63;;;29.50;72.20;;;;;;5054315;28;20048;-61
2022/06/03 08:37:06;;;;;;;6.68;3.25;;;30.20;70.20;;;;;;5054309;28;20037;-65
2022/06/03 08:39:33;;;;;;;6.50;2.85;;;30.70;69.40;;;;;;5055083;28;20465;-65
2022/06/03 08:42:20;;;;;;;5.25;3.40;;;31.00;68.80;;;;;;5054267;28;20025;-62
2022/06/03 08:45:04;;;;;;;9.45;3.42;;;31.40;67.60;;;;;;5035106;28;20037;-61
2022/06/03 08:47:47;;;;;;;8.30;3.28;;;31.90;65.60;;;;;;5038390;28;20029;-61
2022/06/03 08:50:47;;;;;;;6.40;3.40;;;31.90;65.20;;;;;;5054215;28;20040;-61
2022/06/03 08:53:48;;;;;;;7.72;3.50;;;32.00;64.30;;;;;;5046789;28;20032;-64
2022/06/03 08:56:19;;;;;;;7.35;3.22;;;31.80;64.00;;;;;;5054089;28;20040;-60
2022/06/03 08:59:02;;;;;;;4.35;2.90;;;31.30;64.50;;;;;;5052486;28;20095;-63
2022/06/03 09:01:46;;;;;;;9.68;3.30;;;31.30;64.10;;;;;;5053937;28;20037;-64
2022/06/03 09:04:46;;;;;;;4.57;3.10;;;31.20;64.40;;;;;;5054238;28;20330;-62
2022/06/03 09:07:26;;;;;;;4.40;3.13;;;31.70;64.30;;;;;;5053507;28;20021;-61
2022/06/03 09:10:33;;;;;;;7.30;3.80;;;32.00;62.80;;;;;;5053843;28;20361;-63
2022/06/03 09:13:33;;;;;;;5.22;3.20;;;32.00;62.70;;;;;;5054506;28;20254;-62
2022/06/03 09:16:00;;;;;;;6.10;3.05;;;32.00;62.40;;;;;;5052971;28;20048;-62
2022/06/03 09:18:49;;;;;;;5.50;2.88;;;31.90;61.60;;;;;;5054269;28;20433;-62
2022/06/03 09:21:22;;;;;;;7.82;3.35;;;32.00;62.00;;;;;;5053157;28;20484;-63
2022/06/03 09:23:59;;;;;;;9.02;3.72;;;32.40;61.10;;;;;;5053517;28;20033;-62
2022/06/03 09:26:28;;;;;;;6.60;3.10;;;32.80;60.70;;;;;;5053656;28;20017;-64
2022/06/03 09:28:56;;;;;;;7.45;3.50;;;32.90;59.90;;;;;;5054038;28;20130;-64
2022/06/03 09:31:22;;;;;;;6.75;3.20;;;33.10;60.00;;;;;;5053667;28;20023;-62
2022/06/03 09:33:49;;;;;;;5.72;3.35;;;33.10;59.60;;;;;;5054249;28;20029;-61
2022/06/03 09:36:18;;;;;;;6.70;3.20;;;33.30;59.40;;;;;;5053568;28;20025;-62
2022/06/03 09:38:47;;;;;;;5.13;3.05;;;33.60;58.50;;;;;;5053949;28;20067;-62
2022/06/03 09:41:14;;;;;;;6.95;3.38;;;33.80;58.10;;;;;;5053509;28;20033;-61
2022/06/03 09:43:45;;;;;;;4.45;3.00;;;34.10;57.70;;;;;;5054193;28;20017;-64
2022/06/03 09:46:13;;;;;;;;;;;34.30;57.10;;;;;;5054122;28;20033;-64
2022/06/03 09:48:41;;;;;;;7.70;3.58;;;34.40;56.60;;;;;;5053181;28;19904;-63
2022/06/03 09:51:13;;;;;;;8.88;3.53;;;34.50;56.50;;;;;;5047757;28;20025;-61
2022/06/03 09:53:42;;;;;;;8.13;3.28;;;34.50;56.50;;;;;;5054019;28;20048;-62
2022/06/03 09:56:17;;;;;;;6.03;3.72;;;34.60;56.60;;;;;;5051178;28;20500;-61
2022/06/03 09:58:44;;;;;;;4.55;3.10;;;34.80;56.60;;;;;;5053875;28;20454;-62
2022/06/03 10:01:10;;;;;;;7.13;2.97;;;34.90;56.20;;;;;;5052818;28;20079;-62
2022/06/03 10:03:36;;;;;;;7.47;2.90;;;35.10;56.00;;;;;;5053594;28;20025;-62
2022/06/03 10:06:03;;;;;;;6.80;3.70;;;35.00;55.60;;;;;;5053490;28;20350;-63
2022/06/03 10:14:03;;;;;;;7.95;3.42;;;34.80;54.40;;;;;;5053268;28;20063;-61
2022/06/03 10:16:30;;;;;;;8.30;3.45;;;34.50;54.40;;;;;;5052611;28;20045;-62
2022/06/03 10:18:56;;;;;;;6.13;3.78;;;34.50;54.60;;;;;;5048934;28;20029;-65
2022/06/03 10:21:22;;;;;;;5.55;3.55;;;34.60;54.50;;;;;;5053379;28;20024;-62
2022/06/03 10:23:57;;;;;;;6.75;3.28;;;34.60;53.80;;;;;;5052692;28;20079;-62
2022/06/03 10:26:27;;;;;;;5.35;3.42;;;34.60;54.30;;;;;;5052054;28;20027;-61
2022/06/03 10:28:55;;;;;;;4.93;3.22;;;34.90;54.20;;;;;;5053138;28;20035;-64
2022/06/03 10:31:33;;;;;;;6.03;3.30;;;35.10;53.40;;;;;;5068500;28;20471;-64
2022/06/03 10:34:03;;;;;;;4.93;3.30;;;35.10;53.50;;;;;;5060086;28;20039;-62
2022/06/03 10:36:43;;;;;;;6.30;2.92;;;35.10;53.10;;;;;;5057319;28;20021;-66
2022/06/03 10:39:12;;;;;;;8.68;4.07;;;35.00;53.30;;;;;;5047745;28;20025;-62
2022/06/03 10:41:41;;;;;;;9.35;3.83;;;35.00;52.90;;;;;;5061185;28;20033;-67
2022/06/03 10:44:14;;;;;;;6.60;3.58;;;35.00;52.80;;;;;;5068121;28;20020;-66
2022/06/03 10:46:51;;;;;;;9.48;3.30;;;35.10;52.70;;;;;;5029500;28;20052;-61
2022/06/03 10:49:17;;;;;;;6.28;3.40;;;35.20;52.50;;;;;;5030702;28;20030;-61
2022/06/03 11:02:47;;;;;;;7.20;3.40;;;35.30;51.80;;;;;;5049362;28;20032;-61
2022/06/03 11:05:29;;;;;;;6.15;3.10;;;35.30;51.90;;;;;;5048553;28;20029;-62
2022/06/03 11:08:09;;;;;;;3.63;3.03;;;35.20;52.00;;;;;;5052476;28;20383;-63
2022/06/03 11:10:47;;;;;;;6.28;3.67;;;34.90;51.60;;;;;;5062362;28;20111;-61
2022/06/03 11:13:25;;;;;;;7.90;3.17;;;34.90;52.30;;;;;;5048064;28;20017;-62
2022/06/03 11:15:51;;;;;;;6.88;3.08;;;35.00;51.90;;;;;;5047355;28;20089;-64
2022/06/03 11:18:24;;;;;;;9.68;3.53;;;35.20;51.40;;;;;;5047921;28;20069;-63
2022/06/03 11:20:52;;;;;;;4.95;3.20;;;35.30;51.20;;;;;;5047530;28;20469;-62
2022/06/03 11:23:18;;;;;;;5.65;2.50;;;35.30;51.00;;;;;;5047729;28;20702;-64
2022/06/03 11:25:54;;;;;;;5.18;2.60;;;35.20;51.20;;;;;;5047250;28;20021;-62
2022/06/03 11:28:31;;;;;;;6.30;3.00;;;35.30;50.70;;;;;;5045730;28;20083;-64
2022/06/03 11:31:21;;;;;;;5.30;3.20;;;35.60;50.50;;;;;;5045940;28;20485;-61
2022/06/03 11:33:57;;;;;;;6.18;2.50;;;35.70;50.80;;;;;;5043251;28;20496;-62
2022/06/03 11:36:54;;;;;;;4.15;2.58;;;35.80;50.20;;;;;;5048914;28;20025;-62
2022/06/03 11:39:30;;;;;;;5.28;2.88;;;36.10;50.00;;;;;;5055832;28;20044;-62
2022/06/03 11:42:02;;;;;;;5.65;2.85;;;36.40;49.70;;;;;;5040636;28;20021;-63
2022/06/03 11:44:50;;;;;;;4.32;2.90;;;36.40;49.60;;;;;;5041027;28;20112;-62
2022/06/03 11:47:29;;;;;;;7.15;2.97;;;36.60;49.60;;;;;;5038806;28;20033;-62
2022/06/03 11:49:55;;;;;;;6.55;3.72;;;36.80;49.70;;;;;;5040580;28;20049;-61
2022/06/03 11:52:24;;;;;;;5.60;3.10;;;36.70;49.60;;;;;;5044384;28;20025;-61
2022/06/03 11:54:52;;;;;;;6.53;2.80;;;36.50;49.60;;;;;;5035448;28;20031;-64
2022/06/03 11:57:18;;;;;;;4.80;2.30;;;36.10;50.00;;;;;;5040228;28;20453;-61
2022/06/03 12:00:02;;;;;;;7.45;3.10;;;35.80;50.50;;;;;;5042431;28;20018;-62
2022/06/03 12:02:45;;;;;;;5.47;2.72;;;35.60;50.10;;;;;;5041741;28;20053;-65
2022/06/03 12:05:21;;;;;;;6.70;2.90;;;35.40;50.60;;;;;;5044310;28;20434;-64
2022/06/03 12:08:17;;;;;;;8.55;2.58;;;35.20;50.40;;;;;;5034157;28;20018;-62
2022/06/03 12:11:02;;;;;;;5.75;3.10;;;34.90;50.70;;;;;;5034120;28;20057;-61
2022/06/03 12:13:31;;;;;;;6.47;2.72;;;34.80;51.00;;;;;;5033630;28;20140;-61
2022/06/03 12:16:01;;;;;;;6.13;2.85;;;35.00;50.60;;;;;;5034764;28;20018;-62
2022/06/03 12:18:39;;;;;;;5.60;2.53;;;34.90;50.70;;;;;;5036442;28;20504;-63
2022/06/03 12:21:14;;;;;;;10.50;2.92;;;34.80;51.20;;;;;;5040805;28;20030;-63
2022/06/03 12:23:41;;;;;;;5.03;2.40;;;34.90;50.80;;;;;;5038348;28;20037;-63
2022/06/03 12:26:24;;;;;;;5.10;2.83;;;35.30;50.60;;;;;;5033277;28;20021;-64
2022/06/03 12:28:54;;;;;;;6.07;2.60;;;35.50;50.10;;;;;;5032844;28;20538;-61
2022/06/03 12:31:19;;;;;;;7.10;2.60;;;35.40;49.70;;;;;;5034193;28;20056;-62
2022/06/03 12:34:14;;;;;;;4.40;2.45;;;34.90;50.10;;;;;;5034319;28;20022;-62
2022/06/03 12:36:56;;;;;;;6.15;2.42;;;34.30;50.10;;;;;;5035227;28;20477;-64
2022/06/03 12:39:25;;;;;;;5.32;2.47;;;34.00;50.20;;;;;;5040143;28;20397;-66
2022/06/03 12:41:50;;;;;;;5.32;2.60;;;33.80;50.30;;;;;;5043143;28;20024;-61
2022/06/03 12:44:38;;;;;;;5.32;2.60;;;33.50;50.80;;;;;;5040317;28;20041;-64
2022/06/03 12:47:23;;;;;;;5.75;2.50;;;33.30;51.20;;;;;;5033642;28;20022;-61
2022/06/03 12:49:54;;;;;;;3.42;2.63;;;33.10;51.30;;;;;;5033570;28;20406;-63
2022/06/03 12:52:25;;;;;;;4.53;2.25;;;32.70;51.20;;;;;;5034063;28;20033;-61
2022/06/03 12:55:24;;;;;;;3.85;2.42;;;32.20;52.10;;;;;;5041248;28;20055;-63
2022/06/03 12:57:58;;;;;;;5.13;2.40;;;31.70;52.30;;;;;;5029166;28;20030;-66
2022/06/03 13:00:26;;;;;;;4.72;2.47;;;31.30;53.40;;;;;;5033677;28;20033;-62
2022/06/03 13:02:55;;;;;;;5.45;2.50;;;31.00;53.50;;;;;;5033960;28;20032;-65
2022/06/03 13:05:44;;;;;;;4.22;2.10;;;30.70;53.30;;;;;;5033684;28;20033;-62
2022/06/03 13:08:28;;;;;;;4.90;2.55;;;30.20;54.30;;;;;;5033883;28;20034;-62
2022/06/03 13:10:56;;;;;;;4.55;2.25;;;29.80;54.50;;;;;;5037274;28;20090;-62
2022/06/03 13:13:31;;;;;;;3.72;2.10;;;29.40;55.10;;;;;;5033841;28;20018;-65
2022/06/03 13:16:19;;;;;;;4.13;2.00;;;29.20;55.20;;;;;;5033762;28;20036;-61
2022/06/03 13:18:46;;;;;;;3.63;2.17;;;29.10;55.10;;;;;;5033667;28;20116;-62
2022/06/03 13:21:15;;;;;;;2.55;2.22;;;29.00;55.70;;;;;;5037395;28;20029;-63
2022/06/03 13:23:45;;;;;;;5.63;2.17;;;28.90;56.00;;;;;;5036785;28;20029;-62
2022/06/03 13:26:22;;;;;;;3.08;2.22;;;28.70;55.90;;;;;;5053488;28;20029;-61
2022/06/03 13:28:49;;;;;;;4.35;2.13;;;28.50;56.60;;;;;;5042541;28;20022;-62
2022/06/03 13:31:21;;;;;;;3.22;1.90;;;28.40;57.20;;;;;;5033501;28;20076;-63
2022/06/03 13:34:07;;;;;;;4.40;2.20;;;28.30;56.40;;;;;;5047810;28;20067;-62
2022/06/03 13:36:38;;;;;;;5.38;1.90;;;28.10;57.00;;;;;;5033431;28;20021;-63
2022/06/03 13:39:06;;;;;;;3.13;2.10;;;28.00;57.10;;;;;;5036724;28;20025;-62
2022/06/03 13:44:39;;;;;;;5.78;2.55;;;28.00;56.90;;;;;;5033129;28;20044;-63
2022/06/03 13:47:25;;;;;;;3.53;2.28;;;27.90;57.00;;;;;;5032670;28;20088;-62
2022/06/03 13:50:17;;;;;;;5.07;2.00;;;27.90;56.80;;;;;;5032541;28;20037;-63
2022/06/03 13:53:11;;;;;;;4.90;2.13;;;27.90;57.60;;;;;;5034325;28;20420;-62
2022/06/03 13:55:37;;;;;;;7.35;2.58;;;27.80;57.30;;;;;;5031996;28;20493;-62
2022/06/03 13:58:18;;;;;;;3.03;2.10;;;27.80;57.40;;;;;;5036155;28;20096;-62
2022/06/03 14:00:50;;;;;;;5.57;2.10;;;27.80;57.90;;;;;;5032902;28;20025;-62
2022/06/03 14:03:38;;;;;;;3.55;2.25;;;27.70;57.90;;;;;;5030105;28;20028;-65
2022/06/03 14:06:34;;;;;;;5.93;2.47;;;27.70;57.50;;;;;;5029808;28;20397;-63
2022/06/03 14:09:08;;;;;;;5.65;2.80;;;27.60;57.60;;;;;;5030072;28;20025;-62
2022/06/03 14:11:57;;;;;;;5.68;2.75;;;27.50;58.90;;;;;;5028576;28;20108;-63
2022/06/03 14:14:36;;;;;;;4.18;2.28;;;27.50;58.30;;;;;;5032989;28;20033;-62
2022/06/03 14:17:11;;;;;;;2.17;1.77;;;27.30;58.50;;;;;;5032941;28;20017;-62
2022/06/03 14:19:44;;;;;;;2.95;2.30;;;27.30;58.20;;;;;;5032388;28;20489;-65
2022/06/03 14:22:20;;;;;;;3.42;2.00;;;27.30;57.90;;;;;;5032904;28;20017;-62
2022/06/03 14:24:58;;;;;;;9.40;2.40;;;27.40;58.30;;;;;;5035945;28;20028;-63
2022/06/03 14:27:37;;;;;;;4.75;2.08;;;27.40;58.10;;;;;;5032491;28;20704;-61
2022/06/03 14:30:20;;;;;;;4.97;1.80;;;27.30;58.50;;;;;;5029321;28;20179;-62
2022/06/03 14:32:51;;;;;;;4.10;1.92;;;27.30;58.50;;;;;;5032607;28;20024;-61